createdAt,value
2023-04-20T00:02:21.798Z,11.41
2023-04-20T00:04:54.621Z,11.40
2023-04-20T00:07:27.486Z,11.39
2023-04-20T00:09:59.843Z,11.39
2023-04-20T00:12:32.264Z,11.40
2023-04-20T00:15:05.118Z,11.42
2023-04-20T00:17:38.532Z,11.43
2023-04-20T00:20:13.047Z,11.43
2023-04-20T00:22:45.430Z,11.42
2023-04-20T00:25:17.880Z,11.40
2023-04-20T00:27:50.226Z,11.40
2023-04-20T00:30:22.848Z,11.39
2023-04-20T00:32:55.285Z,11.37
2023-04-20T00:35:27.745Z,11.37
2023-04-20T00:38:00.079Z,11.37
2023-04-20T00:40:32.320Z,11.36
2023-04-20T00:43:14.219Z,11.34
2023-04-20T00:45:47.027Z,11.29
2023-04-20T00:48:19.911Z,11.25
2023-04-20T00:50:53.525Z,11.25
2023-04-20T00:53:26.015Z,11.26
2023-04-20T00:55:58.479Z,11.26
2023-04-20T00:58:31.035Z,11.27
2023-04-20T01:01:05.039Z,11.26
2023-04-20T01:03:38.125Z,11.26
2023-04-20T01:06:12.136Z,11.27
2023-04-20T01:08:50.781Z,11.28
2023-04-20T01:11:23.156Z,11.27
2023-04-20T01:13:55.561Z,11.26
2023-04-20T01:16:28.088Z,11.24
2023-04-20T01:19:00.631Z,11.23
2023-04-20T01:21:32.922Z,11.23
2023-04-20T01:24:05.671Z,11.23
2023-04-20T01:26:38.081Z,11.22
2023-04-20T01:29:11.527Z,11.22
2023-04-20T01:31:43.904Z,11.22
2023-04-20T01:34:17.776Z,11.21
2023-04-20T01:36:50.714Z,11.20
2023-04-20T01:39:23.282Z,11.20
2023-04-20T01:41:55.605Z,11.19
2023-04-20T01:44:30.168Z,11.17
2023-04-20T01:47:02.653Z,11.16
2023-04-20T01:49:35.506Z,11.15
2023-04-20T01:52:08.286Z,11.14
2023-04-20T01:54:41.208Z,11.12
2023-04-20T01:57:13.638Z,11.09
2023-04-20T01:59:47.169Z,11.06
2023-04-20T02:02:19.727Z,11.03
2023-04-20T02:04:53.464Z,11.02
2023-04-20T02:07:25.906Z,11.01
2023-04-20T02:09:58.256Z,10.99
2023-04-20T02:12:30.721Z,10.98
2023-04-20T02:15:04.401Z,10.96
2023-04-20T02:17:37.543Z,10.95
2023-04-20T02:20:13.656Z,10.92
2023-04-20T02:22:45.984Z,10.92
2023-04-20T02:25:18.285Z,10.90
2023-04-20T02:27:51.076Z,10.89
2023-04-20T02:30:23.802Z,10.87
2023-04-20T02:32:56.205Z,10.83
2023-04-20T02:35:28.785Z,10.82
2023-04-20T02:38:01.053Z,10.80
2023-04-20T02:40:33.390Z,10.78
2023-04-20T02:43:05.646Z,10.77
2023-04-20T02:45:39.243Z,10.75
2023-04-20T02:48:11.963Z,10.71
2023-04-20T02:50:45.905Z,10.68
2023-04-20T02:53:24.545Z,10.68
2023-04-20T02:56:05.240Z,10.68
2023-04-20T02:58:53.259Z,10.67
2023-04-20T03:01:44.351Z,10.66
2023-04-20T03:04:21.209Z,10.66
2023-04-20T03:07:01.640Z,10.64
2023-04-20T03:09:35.724Z,10.62
2023-04-20T03:12:20.067Z,10.60
2023-04-20T03:15:13.345Z,10.57
2023-04-20T03:18:06.436Z,10.55
2023-04-20T03:20:38.836Z,10.54
2023-04-20T03:23:11.459Z,10.53
2023-04-20T03:25:44.868Z,10.50
2023-04-20T03:28:28.295Z,10.47
2023-04-20T03:31:01.725Z,10.46
2023-04-20T03:33:34.558Z,10.45
2023-04-20T03:36:07.974Z,10.46
2023-04-20T03:38:42.232Z,10.45
2023-04-20T03:41:15.189Z,10.45
2023-04-20T03:43:47.609Z,10.45
2023-04-20T03:46:22.054Z,10.45
2023-04-20T03:48:55.481Z,10.44
2023-04-20T03:51:29.318Z,10.42
2023-04-20T03:54:03.532Z,10.39
2023-04-20T03:56:36.245Z,10.37
2023-04-20T03:59:08.922Z,10.39
2023-04-20T04:01:42.346Z,10.39
2023-04-20T04:04:14.900Z,10.39
2023-04-20T04:06:47.333Z,10.38
2023-04-20T04:09:19.732Z,10.38
2023-04-20T04:11:52.165Z,10.40
2023-04-20T04:14:24.742Z,10.40
2023-04-20T04:16:57.888Z,10.41
2023-04-20T04:19:30.700Z,10.41
2023-04-20T04:22:03.500Z,10.43
2023-04-20T04:24:39.180Z,10.46
2023-04-20T04:27:15.700Z,10.48
2023-04-20T04:29:56.792Z,10.49
2023-04-20T04:32:29.694Z,10.49
2023-04-20T04:35:02.320Z,10.51
2023-04-20T04:37:34.882Z,10.54
2023-04-20T04:40:10.112Z,10.55
2023-04-20T04:42:45.524Z,10.56
2023-04-20T04:45:18.539Z,10.57
2023-04-20T04:47:53.006Z,10.59
2023-04-20T04:50:25.470Z,10.60
2023-04-20T04:52:57.926Z,10.61
2023-04-20T04:55:30.169Z,10.62
2023-04-20T04:58:02.813Z,10.61
2023-04-20T05:00:35.113Z,10.60
2023-04-20T05:03:07.598Z,10.61
2023-04-20T05:05:40.142Z,10.63
2023-04-20T05:08:12.442Z,10.66
2023-04-20T05:10:45.083Z,10.70
2023-04-20T05:13:17.447Z,10.74
2023-04-20T05:15:49.815Z,10.77
2023-04-20T05:18:22.147Z,10.82
2023-04-20T05:20:54.456Z,10.88
2023-04-20T05:23:26.746Z,10.97
2023-04-20T05:25:59.295Z,11.08
2023-04-20T05:28:31.689Z,11.19
2023-04-20T05:31:04.112Z,11.31
2023-04-20T05:33:36.367Z,11.41
2023-04-20T05:36:11.316Z,11.50
2023-04-20T05:38:42.025Z,11.53
2023-04-20T05:41:14.401Z,11.57
2023-04-20T05:43:46.714Z,11.64
2023-04-20T05:46:19.079Z,11.72
2023-04-20T05:48:52.001Z,11.79
2023-04-20T05:51:26.033Z,11.87
2023-04-20T05:53:58.335Z,11.91
2023-04-20T05:56:30.791Z,11.93
2023-04-20T05:59:03.388Z,11.94
2023-04-20T06:01:35.787Z,11.94
2023-04-20T06:04:08.993Z,11.91
2023-04-20T06:06:41.790Z,11.92
2023-04-20T06:09:14.323Z,11.90
2023-04-20T06:11:46.605Z,11.89
2023-04-20T06:14:18.961Z,11.89
2023-04-20T06:16:51.297Z,11.89
2023-04-20T06:19:23.695Z,11.89
2023-04-20T06:21:56.031Z,11.89
2023-04-20T06:24:28.478Z,11.90
2023-04-20T06:27:01.712Z,11.90
2023-04-20T06:29:34.040Z,11.90
2023-04-20T06:32:06.844Z,11.93
2023-04-20T06:34:39.191Z,11.97
2023-04-20T06:37:11.841Z,12.03
2023-04-20T06:39:44.304Z,12.06
2023-04-20T06:42:16.624Z,12.10
2023-04-20T06:44:49.361Z,12.15
2023-04-20T06:47:22.314Z,12.22
2023-04-20T06:49:54.690Z,12.29
2023-04-20T06:52:27.325Z,12.39
2023-04-20T06:55:00.853Z,12.48
2023-04-20T06:57:33.285Z,12.60
2023-04-20T07:00:06.262Z,12.69
2023-04-20T07:02:47.010Z,12.73
2023-04-20T07:05:20.805Z,12.78
2023-04-20T07:07:53.054Z,12.85
2023-04-20T07:10:25.476Z,12.93
2023-04-20T07:12:57.861Z,13.00
2023-04-20T07:15:30.187Z,13.07
2023-04-20T07:18:02.555Z,13.14
2023-04-20T07:20:35.039Z,13.25
2023-04-20T07:23:07.466Z,13.37
2023-04-20T07:25:39.972Z,13.54
2023-04-20T07:28:12.578Z,13.73
2023-04-20T07:30:45.087Z,13.90
2023-04-20T07:33:17.665Z,14.11
2023-04-20T07:35:49.890Z,14.33
2023-04-20T07:38:22.243Z,14.56
2023-04-20T07:40:54.705Z,14.77
2023-04-20T07:43:27.058Z,14.94
2023-04-20T07:45:59.404Z,15.08
2023-04-20T07:48:32.028Z,15.18
2023-04-20T07:51:04.347Z,15.25
2023-04-20T07:53:36.670Z,15.36
2023-04-20T07:56:09.527Z,15.51
2023-04-20T07:58:41.772Z,15.66
2023-04-20T08:01:14.097Z,15.77
2023-04-20T08:03:46.704Z,15.84
2023-04-20T08:06:19.128Z,15.92
2023-04-20T08:08:51.519Z,15.94
2023-04-20T08:11:25.336Z,15.98
2023-04-20T08:13:58.517Z,16.09
2023-04-20T08:16:30.988Z,16.17
2023-04-20T08:19:10.076Z,16.22
2023-04-20T08:21:43.082Z,16.29
2023-04-20T08:24:15.769Z,16.37
2023-04-20T08:26:48.152Z,16.46
2023-04-20T08:29:21.066Z,16.60
2023-04-20T08:31:53.333Z,16.70
2023-04-20T08:34:25.734Z,16.75
2023-04-20T08:36:58.207Z,16.79
2023-04-20T08:39:30.590Z,16.79
2023-04-20T08:42:03.418Z,16.79
2023-04-20T08:44:35.652Z,16.80
2023-04-20T08:47:10.109Z,16.77
2023-04-20T08:49:43.002Z,16.88
2023-04-20T08:52:15.641Z,17.02
2023-04-20T08:54:55.827Z,17.21
2023-04-20T08:57:28.850Z,17.43
2023-04-20T09:00:01.152Z,17.61
2023-04-20T09:02:33.555Z,17.76
2023-04-20T09:05:07.090Z,17.90
2023-04-20T09:07:39.427Z,18.02
2023-04-20T09:10:12.465Z,18.18
2023-04-20T09:12:45.459Z,18.35
2023-04-20T09:15:29.316Z,18.51
2023-04-20T09:18:12.089Z,18.70
2023-04-20T09:20:44.640Z,18.83
2023-04-20T09:23:18.892Z,18.93
2023-04-20T09:25:54.048Z,19.06
2023-04-20T09:28:36.379Z,19.22
2023-04-20T09:31:18.494Z,19.37
2023-04-20T09:34:00.781Z,19.51
2023-04-20T09:36:41.948Z,19.64
2023-04-20T09:39:16.730Z,19.73
2023-04-20T09:41:50.192Z,19.85
2023-04-20T09:44:22.529Z,19.94
2023-04-20T09:46:55.475Z,20.04
2023-04-20T09:49:28.709Z,20.18
2023-04-20T09:52:02.975Z,20.28
2023-04-20T09:54:38.234Z,20.33
2023-04-20T09:57:10.840Z,20.34
2023-04-20T09:59:47.736Z,20.33
2023-04-20T10:02:20.408Z,20.34
2023-04-20T10:04:57.342Z,20.42
2023-04-20T10:07:31.975Z,20.48
2023-04-20T10:10:10.941Z,20.50
2023-04-20T10:12:54.290Z,20.49
2023-04-20T10:15:37.437Z,20.51
2023-04-20T10:18:20.440Z,20.56
2023-04-20T10:20:53.629Z,20.61
2023-04-20T10:23:26.109Z,20.66
2023-04-20T10:26:03.858Z,20.70
2023-04-20T10:28:44.980Z,20.77
2023-04-20T10:31:17.604Z,20.86
2023-04-20T10:33:55.165Z,20.97
2023-04-20T10:36:31.345Z,21.10
2023-04-20T10:39:14.721Z,21.21
2023-04-20T10:41:59.474Z,21.32
2023-04-20T10:44:33.210Z,21.31
2023-04-20T10:47:05.744Z,21.26
2023-04-20T10:49:38.199Z,21.25
2023-04-20T10:52:10.951Z,21.32
2023-04-20T10:54:43.380Z,21.35
2023-04-20T10:57:19.875Z,21.40
2023-04-20T10:59:52.111Z,21.41
2023-04-20T11:02:24.605Z,21.41
2023-04-20T11:05:01.200Z,21.34
2023-04-20T11:07:33.606Z,21.25
2023-04-20T11:10:07.145Z,21.19
2023-04-20T11:12:42.344Z,21.12
2023-04-20T11:15:14.875Z,20.99
2023-04-20T11:17:47.279Z,20.78
2023-04-20T11:20:19.658Z,20.63
2023-04-20T11:22:59.865Z,20.46
2023-04-20T11:25:32.292Z,20.37
2023-04-20T11:28:10.008Z,20.44
2023-04-20T11:30:43.303Z,20.52
2023-04-20T11:33:17.573Z,20.60
2023-04-20T11:35:50.390Z,20.71
2023-04-20T11:38:31.580Z,20.70
2023-04-20T11:41:07.909Z,20.59
2023-04-20T11:43:40.420Z,20.50
2023-04-20T11:46:18.414Z,20.46
2023-04-20T11:48:50.903Z,20.49
2023-04-20T11:51:23.133Z,20.55
2023-04-20T11:53:55.576Z,20.63
2023-04-20T11:56:28.660Z,20.75
2023-04-20T11:59:00.999Z,20.92
2023-04-20T12:01:34.061Z,21.10
2023-04-20T12:04:07.146Z,21.16
2023-04-20T12:06:39.813Z,21.17
2023-04-20T12:09:13.569Z,21.21
2023-04-20T12:11:46.077Z,21.21
2023-04-20T12:14:18.366Z,21.20
2023-04-20T12:16:50.661Z,21.17
2023-04-20T12:19:22.936Z,21.11
2023-04-20T12:21:55.582Z,21.03
2023-04-20T12:24:28.000Z,20.99
2023-04-20T12:27:00.445Z,20.97
2023-04-20T12:29:33.290Z,20.91
2023-04-20T12:32:05.764Z,20.92
2023-04-20T12:34:38.043Z,20.94
2023-04-20T12:37:10.548Z,20.97
2023-04-20T12:39:42.966Z,20.94
2023-04-20T12:42:15.373Z,20.86
2023-04-20T12:44:47.714Z,20.78
2023-04-20T12:47:20.052Z,20.66
2023-04-20T12:49:52.305Z,20.53
2023-04-20T12:52:24.657Z,20.43
2023-04-20T12:54:57.040Z,20.37
2023-04-20T12:57:29.385Z,20.41
2023-04-20T13:00:02.923Z,20.53
2023-04-20T13:02:35.641Z,20.69
2023-04-20T13:05:09.033Z,20.88
2023-04-20T13:07:41.505Z,21.02
2023-04-20T13:10:14.001Z,21.12
2023-04-20T13:12:46.327Z,21.19
2023-04-20T13:15:31.953Z,21.16
2023-04-20T13:18:11.377Z,21.04
2023-04-20T13:20:44.027Z,20.86
2023-04-20T13:23:16.532Z,20.65
2023-04-20T13:25:48.878Z,20.48
2023-04-20T13:28:21.306Z,20.34
2023-04-20T13:30:54.164Z,20.21
2023-04-20T13:33:27.048Z,20.08
2023-04-20T13:35:59.361Z,19.97
2023-04-20T13:38:31.915Z,19.90
2023-04-20T13:41:04.297Z,19.82
2023-04-20T13:43:36.676Z,19.73
2023-04-20T13:46:09.028Z,19.67
2023-04-20T13:48:41.485Z,19.63
2023-04-20T13:51:14.031Z,19.59
2023-04-20T13:53:48.149Z,19.62
2023-04-20T13:56:21.140Z,19.67
2023-04-20T13:58:53.579Z,19.74
2023-04-20T14:01:26.537Z,19.79
2023-04-20T14:03:59.215Z,19.79
2023-04-20T14:06:32.120Z,19.78
2023-04-20T14:09:04.481Z,19.75
2023-04-20T14:11:36.810Z,19.74
2023-04-20T14:14:09.387Z,19.76
2023-04-20T14:16:47.112Z,19.79
2023-04-20T14:19:19.700Z,19.87
2023-04-20T14:21:51.997Z,19.93
2023-04-20T14:24:24.277Z,19.94
2023-04-20T14:26:57.151Z,19.92
2023-04-20T14:29:29.442Z,19.89
2023-04-20T14:32:01.829Z,19.82
2023-04-20T14:34:34.481Z,19.73
2023-04-20T14:37:06.893Z,19.66
2023-04-20T14:39:39.325Z,19.58
2023-04-20T14:42:12.603Z,19.52
2023-04-20T14:44:44.960Z,19.49
2023-04-20T14:47:17.333Z,19.44
2023-04-20T14:49:50.355Z,19.38
2023-04-20T14:52:23.012Z,19.34
2023-04-20T14:54:55.668Z,19.30
2023-04-20T14:57:28.006Z,19.26
2023-04-20T15:00:00.351Z,19.21
2023-04-20T15:02:32.885Z,19.18
2023-04-20T15:05:09.445Z,19.15
2023-04-20T15:07:45.746Z,19.12
2023-04-20T15:10:18.429Z,19.09
2023-04-20T15:12:51.182Z,19.06
2023-04-20T15:15:23.549Z,19.04
2023-04-20T15:17:56.040Z,18.99
2023-04-20T15:20:28.554Z,18.94
2023-04-20T15:23:01.040Z,18.89
2023-04-20T15:25:33.589Z,18.85
2023-04-20T15:28:06.040Z,18.80
2023-04-20T15:30:38.628Z,18.75
2023-04-20T15:33:11.471Z,18.73
2023-04-20T15:35:44.240Z,18.72
2023-04-20T15:38:16.553Z,18.73
2023-04-20T15:40:48.933Z,18.73
2023-04-20T15:43:21.354Z,18.72
2023-04-20T15:45:53.729Z,18.71
2023-04-20T15:48:26.072Z,18.69
2023-04-20T15:50:58.358Z,18.68
2023-04-20T15:53:30.701Z,18.68
2023-04-20T15:56:03.033Z,18.68
2023-04-20T15:58:35.777Z,18.68
2023-04-20T16:01:08.418Z,18.67
2023-04-20T16:03:41.929Z,18.65
2023-04-20T16:06:16.612Z,18.62
2023-04-20T16:08:50.792Z,18.57
2023-04-20T16:11:23.302Z,18.53
2023-04-20T16:13:56.196Z,18.48
2023-04-20T16:16:28.673Z,18.44
2023-04-20T16:19:01.020Z,18.40
2023-04-20T16:21:33.348Z,18.37
2023-04-20T16:24:05.810Z,18.37
2023-04-20T16:26:39.511Z,18.35
2023-04-20T16:29:13.190Z,18.29
2023-04-20T16:31:45.678Z,18.26
2023-04-20T16:34:18.307Z,18.25
2023-04-20T16:36:50.884Z,18.25
2023-04-20T16:39:23.209Z,18.24
2023-04-20T16:41:55.569Z,18.21
2023-04-20T16:44:28.311Z,18.19
2023-04-20T16:47:02.218Z,18.20
2023-04-20T16:49:34.588Z,18.21
2023-04-20T16:52:06.917Z,18.17
2023-04-20T16:54:39.280Z,18.12
2023-04-20T16:57:11.728Z,18.04
2023-04-20T16:59:45.292Z,17.97
2023-04-20T17:02:18.282Z,17.90
2023-04-20T17:04:50.691Z,17.83
2023-04-20T17:07:22.987Z,17.75
2023-04-20T17:09:55.424Z,17.71
2023-04-20T17:12:28.103Z,17.64
2023-04-20T17:15:00.867Z,17.58
2023-04-20T17:17:34.214Z,17.52
2023-04-20T17:20:08.183Z,17.44
2023-04-20T17:22:40.417Z,17.37
2023-04-20T17:25:14.211Z,17.31
2023-04-20T17:27:46.778Z,17.25
2023-04-20T17:30:19.218Z,17.21
2023-04-20T17:32:51.776Z,17.15
2023-04-20T17:35:24.539Z,17.08
2023-04-20T17:37:56.849Z,17.03
2023-04-20T17:40:29.188Z,16.98
2023-04-20T17:43:01.710Z,16.94
2023-04-20T17:45:34.110Z,16.90
2023-04-20T17:48:07.027Z,16.86
2023-04-20T17:50:39.589Z,16.80
2023-04-20T17:53:11.884Z,16.74
2023-04-20T17:55:44.219Z,16.69
2023-04-20T17:58:17.159Z,16.66
2023-04-20T18:00:49.584Z,16.62
2023-04-20T18:03:22.091Z,16.56
2023-04-20T18:05:54.713Z,16.50
2023-04-20T18:08:27.076Z,16.46
2023-04-20T18:10:59.324Z,16.40
2023-04-20T18:13:31.647Z,16.34
2023-04-20T18:16:07.403Z,16.30
2023-04-20T18:18:39.749Z,16.25
2023-04-20T18:21:14.292Z,16.19
2023-04-20T18:23:46.696Z,16.13
2023-04-20T18:26:20.518Z,16.09
2023-04-20T18:28:52.804Z,16.03
2023-04-20T18:31:25.312Z,15.98
2023-04-20T18:33:57.708Z,15.93
2023-04-20T18:36:30.431Z,15.89
2023-04-20T18:39:02.752Z,15.83
2023-04-20T18:41:35.106Z,15.79
2023-04-20T18:44:08.091Z,15.75
2023-04-20T18:46:42.249Z,15.71
2023-04-20T18:49:14.811Z,15.66
2023-04-20T18:51:47.498Z,15.62
2023-04-20T18:54:20.073Z,15.59
2023-04-20T18:56:54.816Z,15.58
2023-04-20T18:59:27.185Z,15.54
2023-04-20T19:01:59.627Z,15.53
2023-04-20T19:04:33.009Z,15.51
2023-04-20T19:07:05.353Z,15.48
2023-04-20T19:09:37.604Z,15.46
2023-04-20T19:12:10.042Z,15.42
2023-04-20T19:14:43.074Z,15.41
2023-04-20T19:17:15.771Z,15.45
2023-04-20T19:19:51.052Z,15.48
2023-04-20T19:22:23.372Z,15.50
2023-04-20T19:24:55.777Z,15.50
2023-04-20T19:27:30.776Z,15.49
2023-04-20T19:30:03.816Z,15.51
2023-04-20T19:32:36.232Z,15.53
2023-04-20T19:35:08.968Z,15.52
2023-04-20T19:37:42.031Z,15.53
2023-04-20T19:40:14.823Z,15.52
2023-04-20T19:42:48.728Z,15.47
2023-04-20T19:45:21.164Z,15.42
2023-04-20T19:47:53.535Z,15.36
2023-04-20T19:50:25.987Z,15.32
2023-04-20T19:52:58.805Z,15.27
2023-04-20T19:55:31.184Z,15.21
2023-04-20T19:58:09.125Z,15.19
2023-04-20T20:00:41.694Z,15.15
2023-04-20T20:03:16.200Z,15.12
2023-04-20T20:05:48.806Z,15.08
2023-04-20T20:08:21.433Z,15.03
2023-04-20T20:10:53.886Z,14.98
2023-04-20T20:13:26.395Z,14.92
2023-04-20T20:16:00.553Z,14.89
2023-04-20T20:18:32.848Z,14.84
2023-04-20T20:21:05.368Z,14.81
2023-04-20T20:23:37.981Z,14.76
2023-04-20T20:26:10.463Z,14.74
2023-04-20T20:28:42.830Z,14.73
2023-04-20T20:31:15.240Z,14.71
2023-04-20T20:33:50.484Z,14.67
2023-04-20T20:36:22.940Z,14.65
2023-04-20T20:38:56.116Z,14.63
2023-04-20T20:41:30.630Z,14.62
2023-04-20T20:44:03.124Z,14.59
2023-04-20T20:46:35.283Z,14.56
2023-04-20T20:49:07.763Z,14.50
2023-04-20T20:51:40.235Z,14.48
2023-04-20T20:54:12.867Z,14.45
2023-04-20T20:56:45.258Z,14.43
2023-04-20T20:59:17.772Z,14.40
2023-04-20T21:01:50.464Z,14.39
2023-04-20T21:04:23.179Z,14.40
2023-04-20T21:06:55.696Z,14.37
2023-04-20T21:09:28.056Z,14.34
2023-04-20T21:12:01.109Z,14.33
2023-04-20T21:14:33.753Z,14.29
2023-04-20T21:17:06.177Z,14.28
2023-04-20T21:19:38.532Z,14.27
2023-04-20T21:22:10.857Z,14.26
2023-04-20T21:24:43.227Z,14.27
2023-04-20T21:27:15.674Z,14.28
2023-04-20T21:29:48.112Z,14.26
2023-04-20T21:32:20.644Z,14.25
2023-04-20T21:34:53.166Z,14.24
2023-04-20T21:37:25.555Z,14.24
2023-04-20T21:39:57.840Z,14.22
2023-04-20T21:42:30.711Z,14.21
2023-04-20T21:45:07.198Z,14.20
2023-04-20T21:47:39.632Z,14.17
2023-04-20T21:50:13.181Z,14.14
2023-04-20T21:52:45.548Z,14.13
2023-04-20T21:55:17.856Z,14.10
2023-04-20T21:57:50.301Z,14.09
2023-04-20T22:00:23.440Z,14.08
2023-04-20T22:02:56.028Z,14.06
2023-04-20T22:05:29.508Z,14.03
2023-04-20T22:08:01.846Z,14.00
2023-04-20T22:10:34.846Z,13.99
2023-04-20T22:13:07.305Z,13.96
2023-04-20T22:15:40.055Z,13.94
2023-04-20T22:18:13.062Z,13.92
2023-04-20T22:20:45.666Z,13.90
2023-04-20T22:23:18.404Z,13.90
2023-04-20T22:25:50.715Z,13.89
2023-04-20T22:28:23.055Z,13.88
2023-04-20T22:30:55.920Z,13.88
2023-04-20T22:33:28.295Z,13.86
2023-04-20T22:36:00.830Z,13.83
2023-04-20T22:38:35.745Z,13.80
2023-04-20T22:41:06.549Z,13.77
2023-04-20T22:43:38.852Z,13.73
2023-04-20T22:46:11.346Z,13.71
2023-04-20T22:48:47.905Z,13.69
2023-04-20T22:51:20.781Z,13.65
2023-04-20T22:53:53.183Z,13.63
2023-04-20T22:56:25.771Z,13.62
2023-04-20T22:58:58.086Z,13.61
2023-04-20T23:01:30.634Z,13.60
2023-04-20T23:04:03.370Z,13.58
2023-04-20T23:06:36.462Z,13.55
2023-04-20T23:09:08.883Z,13.53
2023-04-20T23:11:41.501Z,13.51
2023-04-20T23:14:14.221Z,13.48
2023-04-20T23:16:46.649Z,13.45
2023-04-20T23:19:19.118Z,13.42
2023-04-20T23:21:51.584Z,13.39
2023-04-20T23:24:24.026Z,13.36
2023-04-20T23:26:56.886Z,13.33
2023-04-20T23:29:29.167Z,13.30
2023-04-20T23:32:01.744Z,13.28
2023-04-20T23:34:34.352Z,13.26
2023-04-20T23:37:06.621Z,13.24
2023-04-20T23:39:40.582Z,13.22
2023-04-20T23:42:12.986Z,13.21
2023-04-20T23:44:45.455Z,13.18
2023-04-20T23:47:17.780Z,13.16
2023-04-20T23:49:50.094Z,13.13
2023-04-20T23:52:22.410Z,13.10
2023-04-20T23:54:54.726Z,13.09
2023-04-20T23:57:27.169Z,13.07
2023-04-20T23:59:59.659Z,13.04
